Time;durP1;ratioP1;P1;durP2;ratioP2;P2;SDS_P1;SDS_P2;PMS_P1;PMS_P2;Temp;Humidity;BMP_temperature;BMP_pressure;BME280_temperature;BME280_humidity;BME280_pressure;Samples;Min_cycle;Max_cycle;Signal;HPM_P1;HPM_P2
2022/05/19 00:01:01;;;;;;;31.87;24.40;;;;;;;;;;5061072;28;20139;-60
2022/05/19 00:03:28;;;;;;;39.00;24.73;;;;;;;;;;5058815;28;20108;-60
2022/05/19 00:05:54;;;;;;;34.77;24.77;;;;;;;;;;5059168;28;20059;-60
2022/05/19 00:08:20;;;;;;;40.33;25.53;;;;;;;;;;5061560;28;20037;-60
2022/05/19 00:10:46;;;;;;;32.67;23.73;;;;;;;;;;5057698;28;20029;-60
2022/05/19 00:13:12;;;;;;;30.53;23.87;;;;;;;;;;5061231;28;20043;-60
2022/05/19 00:15:39;;;;;;;33.40;24.87;;;;;;;;;;5060685;28;20052;-60
2022/05/19 00:18:05;;;;;;;33.77;24.57;;;;;;;;;;5061284;28;20129;-60
2022/05/19 00:20:31;;;;;;;31.00;23.40;;;;;;;;;;5058687;28;20518;-60
2022/05/19 00:22:57;;;;;;;36.70;26.07;;;;;;;;;;5059025;28;20418;-60
2022/05/19 00:25:23;;;;;;;38.50;25.73;;;;;;;;;;5061202;28;20148;-62
2022/05/19 00:27:49;;;;;;;34.70;26.87;;;;;;;;;;5060699;28;20422;-60
2022/05/19 00:30:15;;;;;;;34.83;26.93;;;;;;;;;;5059232;28;20040;-60
2022/05/19 00:32:41;;;;;;;35.13;26.67;;;;;;;;;;5060218;28;20045;-60
2022/05/19 00:35:07;;;;;;;37.50;26.53;;;;;;;;;;5058571;28;21108;-60
2022/05/19 00:37:33;;;;;;;38.97;28.07;;;;;;;;;;5059180;28;20040;-61
2022/05/19 00:39:59;;;;;;;40.13;28.77;;;;;;;;;;5060791;28;20131;-61
2022/05/19 00:45:25;;;;;;;43.73;30.33;;;;;;;;;;5053954;28;20091;-61
2022/05/19 00:47:51;;;;;;;45.40;31.33;;;;;;;;;;5058123;28;20036;-60
2022/05/19 00:50:23;;;;;;;43.30;30.67;;;;;;;;;;5058084;28;20044;-60
2022/05/19 00:52:51;;;;;;;43.73;30.77;;;;;;;;;;5059066;28;20047;-61
2022/05/19 00:55:25;;;;;;;45.17;30.77;;;;;;;;;;5059767;28;20083;-61
2022/05/19 00:57:56;;;;;;;47.20;31.90;;;;;;;;;;5057126;28;20037;-61
2022/05/19 01:00:23;;;;;;;43.97;30.13;;;;;;;;;;5057745;28;20077;-60
2022/05/19 01:02:51;;;;;;;45.73;32.37;;;;;;;;;;5058709;28;20040;-60
2022/05/19 01:05:26;;;;;;;37.10;28.97;;;;;;;;;;5058659;28;20103;-61
2022/05/19 01:07:55;;;;;;;37.77;28.93;;;;;;;;;;5059778;28;20086;-61
2022/05/19 01:10:22;;;;;;;43.70;29.57;;;;;;;;;;5058308;28;20554;-60
2022/05/19 01:12:49;;;;;;;43.20;29.80;;;;;;;;;;5059751;28;20072;-61
2022/05/19 01:15:16;;;;;;;45.63;29.47;;;;;;;;;;5058227;28;20048;-60
2022/05/19 01:17:42;;;;;;;44.63;31.47;;;;;;;;;;5059118;28;20040;-60
2022/05/19 01:20:11;;;;;;;44.23;30.17;;;;;;;;;;5058293;28;20513;-61
2022/05/19 01:22:57;;;;;;;46.37;31.73;;;;;;;;;;5056731;28;20041;-60
2022/05/19 01:25:26;;;;;;;40.07;30.23;;;;;;;;;;5059274;28;20159;-60
2022/05/19 01:27:52;;;;;;;37.23;29.37;;;;;;;;;;5058500;28;20133;-60
2022/05/19 01:30:18;;;;;;;37.87;27.53;;;;;;;;;;5056270;28;20419;-60
2022/05/19 01:32:44;;;;;;;44.63;31.70;;;;;;;;;;5062078;28;20049;-60
2022/05/19 01:35:11;;;;;;;45.93;31.20;;;;;;;;;;5063668;28;20044;-60
2022/05/19 01:37:37;;;;;;;42.43;31.03;;;;;;;;;;5057778;28;20051;-60
2022/05/19 01:40:04;;;;;;;46.30;33.40;;;;;;;;;;5056404;28;20663;-60
2022/05/19 01:42:38;;;;;;;53.73;35.07;;;;;;;;;;5058992;28;20088;-60
2022/05/19 01:45:17;;;;;;;44.13;31.63;;;;;;;;;;5058227;28;20052;-60
2022/05/19 01:47:47;;;;;;;45.70;30.47;;;;;;;;;;5059277;28;20048;-61
2022/05/19 01:50:32;;;;;;;56.50;36.10;;;;;;;;;;5057865;28;20040;-60
2022/05/19 01:53:03;;;;;;;49.73;34.77;;;;;;;;;;5058387;28;20539;-60
2022/05/19 01:55:37;;;;;;;52.97;36.73;;;;;;;;;;5058767;28;20044;-60
2022/05/19 01:58:07;;;;;;;54.87;36.90;;;;;;;;;;5059009;28;20053;-60
2022/05/19 02:00:33;;;;;;;53.23;37.03;;;;;;;;;;5053977;28;20515;-60
2022/05/19 02:03:18;;;;;;;56.20;36.87;;;;;;;;;;5057549;28;20043;-60
2022/05/19 02:05:47;;;;;;;51.70;36.10;;;;;;;;;;5058309;28;20044;-60
2022/05/19 02:08:16;;;;;;;53.10;36.43;;;;;;;;;;5056674;28;20499;-60
2022/05/19 02:10:44;;;;;;;53.10;38.03;;;;;;;;;;5055999;28;20044;-60
2022/05/19 02:13:10;;;;;;;55.03;37.63;;;;;;;;;;5057758;28;20052;-60
2022/05/19 02:15:38;;;;;;;52.97;36.90;;;;;;;;;;5056931;28;20048;-61
2022/05/19 02:18:04;;;;;;;49.33;36.40;;;;;;;;;;5057439;28;20411;-60
2022/05/19 02:20:31;;;;;;;54.43;36.93;;;;;;;;;;5056845;28;20052;-60
2022/05/19 02:22:58;;;;;;;65.10;46.13;;;;;;;;;;5055223;28;20043;-60
2022/05/19 02:25:27;;;;;;;63.80;41.90;;;;;;;;;;5059359;28;20044;-60
2022/05/19 02:28:07;;;;;;;63.53;45.33;;;;;;;;;;5057177;28;20040;-60
2022/05/19 02:30:35;;;;;;;60.43;43.13;;;;;;;;;;5057935;28;20482;-60
2022/05/19 02:33:01;;;;;;;65.63;44.17;;;;;;;;;;5054604;28;20044;-60
2022/05/19 02:35:28;;;;;;;66.40;43.80;;;;;;;;;;5058753;28;20090;-60
2022/05/19 02:37:54;;;;;;;59.50;40.97;;;;;;;;;;5056537;28;20056;-61
2022/05/19 02:40:22;;;;;;;61.83;40.67;;;;;;;;;;5056967;28;20067;-60
2022/05/19 02:42:48;;;;;;;62.90;43.93;;;;;;;;;;5057369;28;20495;-60
2022/05/19 02:45:15;;;;;;;69.43;45.27;;;;;;;;;;5056283;28;20131;-61
2022/05/19 02:47:41;;;;;;;71.13;48.77;;;;;;;;;;5057244;28;20056;-60
2022/05/19 02:50:08;;;;;;;67.53;45.93;;;;;;;;;;5054874;28;20458;-60
2022/05/19 02:52:34;;;;;;;64.27;47.70;;;;;;;;;;5055174;28;20048;-60
2022/05/19 02:55:00;;;;;;;69.53;47.53;;;;;;;;;;5059256;28;20714;-60
2022/05/19 02:57:26;;;;;;;65.77;47.27;;;;;;;;;;5057711;28;20048;-60
2022/05/19 02:59:52;;;;;;;66.13;45.47;;;;;;;;;;5059860;28;20045;-60
2022/05/19 03:02:18;;;;;;;67.07;46.23;;;;;;;;;;5060876;28;20673;-60
2022/05/19 03:04:44;;;;;;;62.37;47.53;;;;;;;;;;5059307;28;20491;-60
2022/05/19 03:07:11;;;;;;;64.50;47.40;;;;;;;;;;5060031;28;20091;-60
2022/05/19 03:09:40;;;;;;;63.57;47.93;;;;;;;;;;5061765;28;20490;-60
2022/05/19 03:12:07;;;;;;;63.23;46.43;;;;;;;;;;5061226;28;20037;-60
2022/05/19 03:14:33;;;;;;;63.67;47.57;;;;;;;;;;5061705;28;20045;-60
2022/05/19 03:16:59;;;;;;;69.60;50.50;;;;;;;;;;5060619;28;20123;-60
2022/05/19 03:19:25;;;;;;;66.40;47.17;;;;;;;;;;5060790;28;20045;-61
2022/05/19 03:21:52;;;;;;;68.90;49.50;;;;;;;;;;5059571;28;20400;-60
2022/05/19 03:24:18;;;;;;;60.87;44.07;;;;;;;;;;5060811;28;20410;-61
2022/05/19 03:26:44;;;;;;;74.90;50.67;;;;;;;;;;5058351;28;20392;-61
2022/05/19 03:29:10;;;;;;;68.37;48.40;;;;;;;;;;5061036;28;20041;-60
2022/05/19 03:31:36;;;;;;;62.93;46.63;;;;;;;;;;5061420;28;20103;-61
2022/05/19 03:34:03;;;;;;;73.83;50.40;;;;;;;;;;5059390;28;20482;-60
2022/05/19 03:36:29;;;;;;;66.53;48.27;;;;;;;;;;5057626;28;20414;-60
2022/05/19 03:38:55;;;;;;;73.60;50.30;;;;;;;;;;5061607;28;20053;-60
2022/05/19 03:41:22;;;;;;;63.73;45.87;;;;;;;;;;5059444;28;20044;-60
2022/05/19 03:43:48;;;;;;;69.33;49.00;;;;;;;;;;5061311;28;20099;-60
2022/05/19 03:46:14;;;;;;;59.47;44.13;;;;;;;;;;5059334;28;20039;-60
2022/05/19 03:48:40;;;;;;;69.73;47.50;;;;;;;;;;5059983;28;20047;-60
2022/05/19 03:51:11;;;;;;;65.83;48.10;;;;;;;;;;5056125;28;20044;-60
2022/05/19 03:53:38;;;;;;;71.13;51.57;;;;;;;;;;5058458;28;20045;-60
2022/05/19 03:56:05;;;;;;;64.57;47.10;;;;;;;;;;5056236;28;20072;-60
2022/05/19 03:58:31;;;;;;;55.73;39.73;;;;;;;;;;5056119;28;20461;-60
2022/05/19 04:00:57;;;;;;;59.20;43.00;;;;;;;;;;5058800;28;20044;-60
2022/05/19 04:03:23;;;;;;;57.03;40.67;;;;;;;;;;5058932;28;20102;-61
2022/05/19 04:05:49;;;;;;;62.97;43.10;;;;;;;;;;5052882;28;20048;-61
2022/05/19 04:08:15;;;;;;;66.87;51.07;;;;;;;;;;5051886;28;20571;-61
2022/05/19 04:10:42;;;;;;;74.47;52.20;;;;;;;;;;5059003;28;20044;-61
2022/05/19 04:13:09;;;;;;;67.23;50.53;;;;;;;;;;5062831;28;20111;-61
2022/05/19 04:15:36;;;;;;;56.60;42.27;;;;;;;;;;5061310;28;20056;-61
2022/05/19 04:18:02;;;;;;;69.50;51.60;;;;;;;;;;5061180;28;20152;-60
2022/05/19 04:20:30;;;;;;;61.43;43.40;;;;;;;;;;5059909;28;20037;-61
2022/05/19 04:22:56;;;;;;;73.60;50.30;;;;;;;;;;5057273;28;20102;-60
2022/05/19 04:25:23;;;;;;;68.87;52.33;;;;;;;;;;5056715;28;20482;-61
2022/05/19 04:27:49;;;;;;;68.13;50.70;;;;;;;;;;5056355;28;20036;-61
2022/05/19 04:30:15;;;;;;;65.30;47.93;;;;;;;;;;5062288;28;20040;-60
2022/05/19 04:32:42;;;;;;;57.50;45.57;;;;;;;;;;5060202;28;20049;-60
2022/05/19 04:35:08;;;;;;;63.73;45.87;;;;;;;;;;5062367;28;20040;-60
2022/05/19 04:37:34;;;;;;;59.23;44.90;;;;;;;;;;5054641;28;20511;-61
2022/05/19 04:40:01;;;;;;;57.70;44.03;;;;;;;;;;5053406;28;20557;-61
2022/05/19 04:42:28;;;;;;;57.43;45.03;;;;;;;;;;5054384;28;20135;-61
2022/05/19 04:44:57;;;;;;;57.20;45.03;;;;;;;;;;5054180;28;20048;-61
2022/05/19 04:47:23;;;;;;;59.57;45.57;;;;;;;;;;5049792;28;20199;-61
2022/05/19 04:49:50;;;;;;;61.83;45.20;;;;;;;;;;5051598;28;20049;-62
2022/05/19 04:52:16;;;;;;;58.97;42.70;;;;;;;;;;5053653;28;20392;-61
2022/05/19 04:54:42;;;;;;;57.13;43.37;;;;;;;;;;5052447;28;20037;-61
2022/05/19 04:57:10;;;;;;;56.80;44.77;;;;;;;;;;5052487;28;20037;-61
2022/05/19 04:59:40;;;;;;;56.43;43.73;;;;;;;;;;5050535;28;20127;-60
2022/05/19 05:02:06;;;;;;;50.93;41.37;;;;;;;;;;5058680;28;20683;-60
2022/05/19 05:04:32;;;;;;;49.00;39.73;;;;;;;;;;5057700;28;20059;-61
2022/05/19 05:06:58;;;;;;;45.03;37.50;;;;;;;;;;5059931;28;20048;-61
2022/05/19 05:09:25;;;;;;;45.40;37.97;;;;;;;;;;5055810;28;20399;-61
2022/05/19 05:11:51;;;;;;;49.27;38.20;;;;;;;;;;5055230;28;20036;-61
2022/05/19 05:14:17;;;;;;;40.10;35.00;;;;;;;;;;5055385;28;20049;-61
2022/05/19 05:16:48;;;;;;;42.37;32.73;;;;;;;;;;5058182;28;20510;-61
2022/05/19 05:19:14;;;;;;;36.63;30.77;;;;;;;;;;5057090;28;20040;-61
2022/05/19 05:21:40;;;;;;;36.90;30.87;;;;;;;;;;5061620;28;20048;-61
2022/05/19 05:24:06;;;;;;;34.83;28.60;;;;;;;;;;5058617;28;20032;-61
2022/05/19 05:26:32;;;;;;;34.47;28.23;;;;;;;;;;5058318;28;20525;-61
2022/05/19 05:28:58;;;;;;;33.07;28.33;;;;;;;;;;5056663;28;20044;-61
2022/05/19 05:31:24;;;;;;;35.07;26.93;;;;;;;;;;5055586;28;20049;-61
2022/05/19 05:33:50;;;;;;;35.30;27.70;;;;;;;;;;5047950;28;20045;-61
2022/05/19 05:36:16;;;;;;;30.57;26.67;;;;;;;;;;5049311;28;20037;-61
2022/05/19 05:38:42;;;;;;;26.27;23.37;;;;;;;;;;5050660;28;20144;-61
2022/05/19 05:41:08;;;;;;;25.37;21.17;;;;;;;;;;5069404;28;20048;-61
2022/05/19 05:43:38;;;;;;;22.57;16.53;;;;;;;;;;5050826;28;20045;-61
2022/05/19 05:46:09;;;;;;;17.30;15.53;;;;;;;;;;5067400;28;20490;-61
2022/05/19 05:48:36;;;;;;;16.03;14.30;;;;;;;;;;5068497;28;20059;-61
2022/05/19 05:51:06;;;;;;;17.47;13.57;;;;;;;;;;5052360;28;20445;-61
2022/05/19 05:53:32;;;;;;;16.13;10.90;;;;;;;;;;5048093;28;20049;-61
2022/05/19 05:55:58;;;;;;;18.47;10.93;;;;;;;;;;5048201;28;20041;-61
2022/05/19 05:58:24;;;;;;;13.83;10.10;;;;;;;;;;5048959;28;20098;-61
2022/05/19 06:00:50;;;;;;;16.43;10.03;;;;;;;;;;5057688;28;20037;-61
2022/05/19 06:03:16;;;;;;;12.00;8.57;;;;;;;;;;5067703;28;20052;-61
2022/05/19 06:05:42;;;;;;;12.70;7.83;;;;;;;;;;5067413;28;20040;-61
2022/05/19 06:08:09;;;;;;;8.60;6.83;;;;;;;;;;5067527;28;20063;-61
2022/05/19 06:10:36;;;;;;;15.43;6.83;;;;;;;;;;5050047;28;20128;-61
2022/05/19 06:13:02;;;;;;;11.87;6.00;;;;;;;;;;5065772;28;20048;-61
2022/05/19 06:15:28;;;;;;;9.70;6.50;;;;;;;;;;5067725;28;20048;-61
2022/05/19 06:17:54;;;;;;;9.40;5.97;;;;;;;;;;5068582;28;20127;-61
2022/05/19 06:20:20;;;;;;;6.13;4.43;;;;;;;;;;5055366;28;20137;-61
2022/05/19 06:22:46;;;;;;;9.07;4.87;;;;;;;;;;5048629;28;20040;-61
2022/05/19 06:25:16;;;;;;;8.47;4.87;;;;;;;;;;5048246;28;20071;-61
2022/05/19 06:27:42;;;;;;;8.50;3.93;;;;;;;;;;5048046;28;20056;-61
2022/05/19 06:30:08;;;;;;;6.27;4.00;;;;;;;;;;5048326;28;20395;-61
2022/05/19 06:32:35;;;;;;;5.57;3.97;;;;;;;;;;5052877;28;20046;-61
2022/05/19 06:35:01;;;;;;;5.80;3.43;;;;;;;;;;5052112;28;20045;-61
2022/05/19 06:37:27;;;;;;;5.57;3.23;;;;;;;;;;5052634;28;20071;-61
2022/05/19 06:39:53;;;;;;;6.67;3.90;;;;;;;;;;5052807;28;20049;-61
2022/05/19 06:42:19;;;;;;;6.20;3.23;;;;;;;;;;5052404;28;20098;-60
2022/05/19 06:44:45;;;;;;;7.30;3.20;;;;;;;;;;5051571;28;20106;-61
2022/05/19 06:47:15;;;;;;;5.37;2.80;;;;;;;;;;5051939;28;20140;-61
2022/05/19 06:49:45;;;;;;;7.83;3.57;;;;;;;;;;5065918;28;20076;-61
2022/05/19 06:52:15;;;;;;;5.93;3.47;;;;;;;;;;5057190;28;20084;-61
2022/05/19 06:54:51;;;;;;;6.03;3.40;;;;;;;;;;5052301;28;20048;-60
2022/05/19 06:57:19;;;;;;;6.97;3.77;;;;;;;;;;5052471;28;20037;-61
2022/05/19 06:59:46;;;;;;;6.70;3.40;;;;;;;;;;5052874;28;20063;-60
2022/05/19 07:02:12;;;;;;;5.00;3.20;;;;;;;;;;5052228;28;20132;-60
2022/05/19 07:04:38;;;;;;;7.63;3.30;;;;;;;;;;5052012;28;20041;-61
2022/05/19 07:07:04;;;;;;;6.53;3.47;;;;;;;;;;5051163;28;20074;-61
2022/05/19 07:09:31;;;;;;;6.13;3.43;;;;;;;;;;5051799;28;20041;-60
2022/05/19 07:11:57;;;;;;;5.83;3.20;;;;;;;;;;5061197;28;20446;-60
2022/05/19 07:14:23;;;;;;;4.80;2.83;;;;;;;;;;5051846;28;20918;-60
2022/05/19 07:16:49;;;;;;;5.87;2.43;;;;;;;;;;5051409;28;20052;-61
2022/05/19 07:22:00;;;;;;;5.40;3.07;;;;;;;;;;5052292;28;20049;-61
2022/05/19 07:24:26;;;;;;;4.17;2.53;;;;;;;;;;5053373;28;20499;-61
2022/05/19 07:26:54;;;;;;;4.40;2.83;;;;;;;;;;5071303;28;20044;-61
2022/05/19 07:29:20;;;;;;;6.80;3.20;;;;;;;;;;5070252;28;20076;-61
2022/05/19 07:31:46;;;;;;;10.70;4.03;;;;;;;;;;5067846;28;20076;-61
2022/05/19 07:34:13;;;;;;;4.93;3.33;;;;;;;;;;5071640;28;20072;-61
2022/05/19 07:36:40;;;;;;;10.83;4.43;;;;;;;;;;5071275;28;20044;-61
2022/05/19 07:39:06;;;;;;;7.37;3.43;;;;;;;;;;5070632;28;20124;-61
2022/05/19 07:41:33;;;;;;;7.20;3.70;;;;;;;;;;5070495;28;20648;-61
2022/05/19 07:43:59;;;;;;;7.63;3.70;;;;;;;;;;5071606;28;20044;-61
2022/05/19 07:46:28;;;;;;;7.43;4.07;;;;;;;;;;5070515;28;20048;-61
2022/05/19 07:48:55;;;;;;;4.57;3.20;;;;;;;;;;5052181;28;20411;-61
2022/05/19 07:51:22;;;;;;;8.40;4.53;;;;;;;;;;5050436;28;20589;-61
2022/05/19 07:53:49;;;;;;;6.43;3.60;;;;;;;;;;5053871;28;20495;-61
2022/05/19 07:56:15;;;;;;;8.50;3.83;;;;;;;;;;5050454;28;20052;-61
2022/05/19 07:58:41;;;;;;;7.70;3.30;;;;;;;;;;5051055;28;20395;-61
2022/05/19 08:01:07;;;;;;;7.33;4.13;;;;;;;;;;5051676;28;20506;-61
2022/05/19 08:03:34;;;;;;;6.97;3.80;;;;;;;;;;5052451;28;20131;-61
2022/05/19 08:06:00;;;;;;;6.67;4.47;;;;;;;;;;5050712;28;20049;-61
2022/05/19 08:08:26;;;;;;;8.43;4.23;;;;;;;;;;5049902;28;20562;-61
2022/05/19 08:10:53;;;;;;;6.97;4.50;;;;;;;;;;5050329;28;20048;-61
2022/05/19 08:16:04;;;;;;;9.77;5.73;;;;;;;;;;5050043;28;20048;-61
2022/05/19 08:18:30;;;;;;;7.87;5.87;;;;;;;;;;5053328;28;20045;-61
2022/05/19 08:21:04;;;;;;;10.50;7.33;;;;;;;;;;5051247;28;20072;-61
2022/05/19 08:23:32;;;;;;;13.77;6.83;;;;;;;;;;5050774;28;20381;-61
2022/05/19 08:25:58;;;;;;;9.20;6.17;;;;;;;;;;5050255;28;20125;-61
2022/05/19 08:28:30;;;;;;;10.40;6.53;;;;;;;;;;5049476;28;20110;-61
2022/05/19 08:30:58;;;;;;;8.90;7.35;;;;;;;;;;5050155;28;20048;-61
2022/05/19 08:33:24;;;;;;;13.67;8.13;;;;;;;;;;5057093;28;20049;-61
2022/05/19 08:35:51;;;;;;;12.13;8.67;;;;;;;;;;5070298;28;20639;-61
2022/05/19 08:38:17;;;;;;;11.60;7.10;;;;;;;;;;5069764;28;20052;-61
2022/05/19 08:40:45;;;;;;;9.47;7.63;;;;;;;;;;5067610;28;20382;-61
2022/05/19 08:43:13;;;;;;;10.83;7.83;;;;;;;;;;5061028;28;20083;-61
2022/05/19 08:45:41;;;;;;;11.97;7.50;;;;;;;;;;5060617;28;20041;-61
2022/05/19 08:48:10;;;;;;;12.83;9.20;;;;;;;;;;5058534;28;20665;-61
2022/05/19 08:50:40;;;;;;;12.53;8.57;;;;;;;;;;5064292;28;20044;-61
2022/05/19 08:53:10;;;;;;;11.10;8.27;;;;;;;;;;5066163;28;20033;-61
2022/05/19 08:55:36;;;;;;;12.33;7.90;;;;;;;;;;5065679;28;20052;-61
2022/05/19 08:58:10;;;;;;;10.73;7.93;;;;;;;;;;5049391;28;20123;-61
2022/05/19 09:00:48;;;;;;;12.03;7.00;;;;;;;;;;5067123;28;20051;-61
2022/05/19 09:03:17;;;;;;;8.07;6.10;;;;;;;;;;5069045;28;20067;-60
2022/05/19 09:05:45;;;;;;;8.88;6.93;;;;;;;;;;5069972;28;20040;-61
2022/05/19 09:08:30;;;;;;;6.00;4.70;;;;;;;;;;5055618;28;20747;-61
2022/05/19 09:11:02;;;;;;;7.78;5.05;;;;;;;;;;5054741;28;20080;-61
2022/05/19 09:13:47;;;;;;;6.50;5.13;;;;;;;;;;5049345;28;20107;-61
2022/05/19 09:16:13;;;;;;;8.10;4.97;;;;;;;;;;5049754;28;20049;-60
2022/05/19 09:18:40;;;;;;;9.18;5.30;;;;;;;;;;5062615;28;20399;-61
2022/05/19 09:21:07;;;;;;;6.28;5.07;;;;;;;;;;5053576;28;20091;-60
2022/05/19 09:23:35;;;;;;;6.75;5.28;;;;;;;;;;5063606;28;20413;-61
2022/05/19 09:26:26;;;;;;;7.45;5.40;;;;;;;;;;5053403;28;20052;-60
2022/05/19 09:28:56;;;;;;;9.43;5.88;;;;;;;;;;5055184;28;20059;-61
2022/05/19 09:31:36;;;;;;;8.15;6.20;;;;;;;;;;5059075;28;20135;-61
2022/05/19 09:34:02;;;;;;;9.15;6.18;;;;;;;;;;5058608;28;20406;-61
2022/05/19 09:36:28;;;;;;;7.50;5.75;;;;;;;;;;5057535;28;20051;-61
2022/05/19 09:38:59;;;;;;;6.60;5.38;;;;;;;;;;5057705;28;20506;-61
2022/05/19 09:41:34;;;;;;;9.57;5.35;;;;;;;;;;5055851;28;20052;-61
2022/05/19 09:44:03;;;;;;;7.30;5.22;;;;;;;;;;5064568;28;20048;-61
2022/05/19 09:46:39;;;;;;;11.25;5.13;;;;;;;;;;5054931;28;20828;-61
2022/05/19 09:49:06;;;;;;;6.40;4.82;;;;;;;;;;5060497;28;20076;-61
2022/05/19 09:51:43;;;;;;;8.73;6.30;;;;;;;;;;5064110;28;20055;-61
2022/05/19 09:54:13;;;;;;;8.02;6.05;;;;;;;;;;5066509;28;20044;-61
2022/05/19 09:56:53;;;;;;;9.82;6.88;;;;;;;;;;5065386;28;20125;-61
2022/05/19 09:59:19;;;;;;;9.00;7.10;;;;;;;;;;5048184;28;20045;-61
2022/05/19 10:01:46;;;;;;;8.02;6.40;;;;;;;;;;5046702;28;20526;-61
2022/05/19 10:04:37;;;;;;;10.00;7.22;;;;;;;;;;5056602;28;20055;-61
2022/05/19 10:07:23;;;;;;;8.57;6.55;;;;;;;;;;5068284;28;20049;-61
2022/05/19 10:09:49;;;;;;;9.02;7.28;;;;;;;;;;5068539;28;20045;-61
2022/05/19 10:12:22;;;;;;;12.55;6.50;;;;;;;;;;5050698;28;20045;-61
2022/05/19 10:14:51;;;;;;;8.50;6.85;;;;;;;;;;5047749;28;20041;-61
2022/05/19 10:17:17;;;;;;;8.43;6.75;;;;;;;;;;5049674;28;20044;-61
2022/05/19 10:19:52;;;;;;;8.55;6.30;;;;;;;;;;5068139;28;20052;-61
2022/05/19 10:22:25;;;;;;;8.07;5.30;;;;;;;;;;5067666;28;20135;-61
2022/05/19 10:25:06;;;;;;;6.28;5.13;;;;;;;;;;5067716;28;20052;-61
2022/05/19 10:31:05;;;;;;;10.25;7.20;;;;;;;;;;5065433;28;20049;-61
2022/05/19 10:33:49;;;;;;;8.93;6.45;;;;;;;;;;5046904;28;20091;-61
2022/05/19 10:36:19;;;;;;;7.20;5.97;;;;;;;;;;5047835;28;20117;-61
2022/05/19 10:39:03;;;;;;;6.47;5.85;;;;;;;;;;5054117;28;20061;-61
2022/05/19 10:41:34;;;;;;;5.80;5.10;;;;;;;;;;5059701;28;20659;-61
2022/05/19 10:44:19;;;;;;;7.90;4.55;;;;;;;;;;5051226;28;20468;-61
2022/05/19 10:46:51;;;;;;;6.57;4.50;;;;;;;;;;5052826;28;20132;-61
2022/05/19 10:49:36;;;;;;;6.78;3.47;;;;;;;;;;5053204;28;20063;-61
2022/05/19 10:52:22;;;;;;;5.47;3.40;;;;;;;;;;5048158;28;20494;-61
2022/05/19 10:54:51;;;;;;;5.55;3.38;;;;;;;;;;5051858;28;20392;-61
2022/05/19 10:57:17;;;;;;;5.85;3.63;;;;;;;;;;5046860;28;20053;-61
2022/05/19 10:59:43;;;;;;;5.15;3.55;;;;;;;;;;5047933;28;20191;-61
2022/05/19 11:02:12;;;;;;;4.20;3.80;;;;;;;;;;5065341;28;20044;-61
2022/05/19 11:04:47;;;;;;;7.20;3.92;;;;;;;;;;5067667;28;20045;-61
2022/05/19 11:07:13;;;;;;;5.47;3.63;;;;;;;;;;5067966;28;20056;-61
2022/05/19 11:09:46;;;;;;;8.35;3.88;;;;;;;;;;5053627;28;20119;-61
2022/05/19 11:12:30;;;;;;;6.00;2.90;;;;;;;;;;5047825;28;20045;-62
2022/05/19 11:15:04;;;;;;;7.03;3.38;;;;;;;;;;5055341;28;20044;-61
2022/05/19 11:17:33;;;;;;;4.38;3.28;;;;;;;;;;5059669;28;20037;-61
2022/05/19 11:20:03;;;;;;;3.13;2.70;;;;;;;;;;5051541;28;20075;-61
2022/05/19 11:22:31;;;;;;;3.05;2.10;;;;;;;;;;5059123;28;20091;-61
2022/05/19 11:27:48;;;;;;;5.13;3.00;;;;;;;;;;5070792;28;20090;-61
2022/05/19 11:30:18;;;;;;;6.10;3.92;;;;;;;;;;5066411;28;20047;-61
2022/05/19 11:32:45;;;;;;;5.65;3.95;;;;;;;;;;5051087;28;20513;-61
2022/05/19 11:35:12;;;;;;;5.22;4.07;;;;;;;;;;5063800;28;20044;-61
2022/05/19 11:37:46;;;;;;;4.57;3.85;;;;;;;;;;5070876;28;20505;-61
2022/05/19 11:40:20;;;;;;;7.57;4.10;;;;;;;;;;5068877;28;20060;-61
2022/05/19 11:42:54;;;;;;;7.18;4.47;;;;;;;;;;5070368;28;20418;-61
2022/05/19 11:45:42;;;;;;;6.68;3.85;;;;;;;;;;5063582;28;20056;-61
2022/05/19 11:56:49;;;;;;;5.40;3.53;;;;;;;;;;5055609;28;20550;-61
2022/05/19 11:59:16;;;;;;;3.70;3.10;;;;;;;;;;5067707;28;20040;-61
2022/05/19 12:01:47;;;;;;;9.13;3.88;;;;;;;;;;5049739;28;20040;-61
2022/05/19 12:04:26;;;;;;;4.70;3.20;;;;;;;;;;5064433;28;20040;-61
2022/05/19 12:06:57;;;;;;;6.65;3.03;;;;;;;;;;5070510;28;20049;-60
2022/05/19 12:09:23;;;;;;;4.35;3.55;;;;;;;;;;5070001;28;20048;-61
2022/05/19 12:11:52;;;;;;;6.97;3.40;;;;;;;;;;5054698;28;20052;-61
2022/05/19 12:14:18;;;;;;;6.30;3.50;;;;;;;;;;5053449;28;20052;-61
2022/05/19 12:16:55;;;;;;;4.22;3.28;;;;;;;;;;5050158;28;20057;-61
2022/05/19 12:19:40;;;;;;;4.32;3.40;;;;;;;;;;5049940;28;20040;-61
2022/05/19 12:22:06;;;;;;;4.80;3.65;;;;;;;;;;5049284;28;20080;-61
2022/05/19 12:24:36;;;;;;;6.18;4.03;;;;;;;;;;5069208;28;20048;-61
2022/05/19 12:27:11;;;;;;;6.05;3.90;;;;;;;;;;5069426;28;20052;-60
2022/05/19 12:29:54;;;;;;;5.03;4.25;;;;;;;;;;5068435;28;20072;-61
2022/05/19 12:32:20;;;;;;;;;;;;;;;;;;5069880;28;20059;-61
2022/05/19 12:34:46;;;;;;;4.30;3.58;;;;;;;;;;5069076;28;20374;-60
2022/05/19 12:37:30;;;;;;;9.52;3.40;;;;;;;;;;5066384;28;20045;-60
2022/05/19 12:40:22;;;;;;;6.80;2.92;;;;;;;;;;5069211;28;20056;-60
2022/05/19 12:42:49;;;;;;;7.07;2.70;;;;;;;;;;5066025;28;20062;-60
2022/05/19 12:45:25;;;;;;;2.92;2.35;;;;;;;;;;5053360;28;20540;-60
2022/05/19 12:48:02;;;;;;;5.32;2.53;;;;;;;;;;5049691;28;20572;-60
2022/05/19 12:50:40;;;;;;;3.67;2.60;;;;;;;;;;5048997;28;20187;-60
2022/05/19 12:53:26;;;;;;;4.22;2.53;;;;;;;;;;5049273;28;20052;-60
2022/05/19 12:55:54;;;;;;;4.88;2.97;;;;;;;;;;5049766;28;20059;-60
2022/05/19 12:58:32;;;;;;;4.97;3.47;;;;;;;;;;5048851;28;20522;-60
2022/05/19 13:01:07;;;;;;;10.88;4.30;;;;;;;;;;5049350;28;20045;-60
2022/05/19 13:03:35;;;;;;;73.13;9.30;;;;;;;;;;5049097;28;20049;-62
2022/05/19 13:06:04;;;;;;;19.27;10.93;;;;;;;;;;5048617;28;20037;-63
2022/05/19 13:08:35;;;;;;;15.23;7.47;;;;;;;;;;5051448;28;20053;-63
2022/05/19 13:11:04;;;;;;;25.37;7.97;;;;;;;;;;5060261;28;20518;-63
2022/05/19 13:13:32;;;;;;;43.33;10.93;;;;;;;;;;5061301;28;20095;-63
2022/05/19 13:16:02;;;;;;;32.60;13.93;;;;;;;;;;5060614;28;20578;-63
2022/05/19 13:18:37;;;;;;;38.57;15.13;;;;;;;;;;5048615;28;20049;-63
2022/05/19 13:21:08;;;;;;;58.30;19.50;;;;;;;;;;5048863;28;20056;-63
2022/05/19 13:23:37;;;;;;;24.60;16.60;;;;;;;;;;5047462;28;20037;-62
2022/05/19 13:26:05;;;;;;;35.97;20.63;;;;;;;;;;5048955;28;20499;-62
2022/05/19 13:31:27;;;;;;;36.93;23.13;;;;;;;;;;5048447;28;20041;-62
2022/05/19 13:33:56;;;;;;;39.17;24.73;;;;;;;;;;5049953;28;20049;-62
2022/05/19 13:36:28;;;;;;;49.03;27.00;;;;;;;;;;5050317;28;20098;-62
2022/05/19 13:39:04;;;;;;;44.67;25.83;;;;;;;;;;5048781;28;20063;-62
2022/05/19 13:41:32;;;;;;;59.33;24.53;;;;;;;;;;5059530;28;20751;-62
2022/05/19 13:43:58;;;;;;;116.17;44.93;;;;;;;;;;5054078;28;20098;-62
2022/05/19 13:46:25;;;;;;;46.13;20.63;;;;;;;;;;5051088;28;20056;-62
2022/05/19 13:48:53;;;;;;;39.17;22.80;;;;;;;;;;5067432;28;20048;-62
2022/05/19 13:51:38;;;;;;;90.77;33.63;;;;;;;;;;5066291;28;20462;-62
2022/05/19 13:54:05;;;;;;;159.93;44.00;;;;;;;;;;5065766;28;20036;-62
2022/05/19 13:56:39;;;;;;;48.27;16.80;;;;;;;;;;5055849;28;20048;-62
2022/05/19 13:59:06;;;;;;;122.53;39.93;;;;;;;;;;5052630;28;20041;-62
2022/05/19 14:01:34;;;;;;;64.23;28.37;;;;;;;;;;5052257;28;20048;-62
2022/05/19 14:04:03;;;;;;;23.23;14.73;;;;;;;;;;5063750;28;20075;-62
2022/05/19 14:06:30;;;;;;;97.37;40.17;;;;;;;;;;5063499;28;20064;-62
2022/05/19 14:08:57;;;;;;;111.33;41.20;;;;;;;;;;5053434;28;20130;-63
2022/05/19 14:11:23;;;;;;;60.90;29.40;;;;;;;;;;5066397;28;20045;-62
2022/05/19 14:13:54;;;;;;;111.83;42.77;;;;;;;;;;5063326;28;20232;-62
2022/05/19 14:16:20;;;;;;;72.03;33.10;;;;;;;;;;5061704;28;20074;-63
2022/05/19 14:18:48;;;;;;;50.67;26.77;;;;;;;;;;5065417;28;20048;-63
2022/05/19 14:21:26;;;;;;;52.80;24.43;;;;;;;;;;5059011;28;20127;-63
2022/05/19 14:24:00;;;;;;;61.27;31.07;;;;;;;;;;5050671;28;20044;-62
2022/05/19 14:26:32;;;;;;;98.47;41.80;;;;;;;;;;5065957;28;20048;-62
2022/05/19 14:29:00;;;;;;;69.35;33.58;;;;;;;;;;5050245;28;20068;-62
2022/05/19 14:31:44;;;;;;;132.70;49.50;;;;;;;;;;5047795;28;20846;-62
2022/05/19 14:34:10;;;;;;;60.63;32.93;;;;;;;;;;5054569;28;20098;-62
2022/05/19 14:36:42;;;;;;;35.97;22.17;;;;;;;;;;5067377;28;20399;-63
2022/05/19 14:39:23;;;;;;;37.40;23.27;;;;;;;;;;5067473;28;20076;-62
2022/05/19 14:44:40;;;;;;;40.40;24.13;;;;;;;;;;5062161;28;20076;-63
2022/05/19 14:47:26;;;;;;;46.57;27.23;;;;;;;;;;5047713;28;20041;-62
2022/05/19 14:49:59;;;;;;;34.70;22.53;;;;;;;;;;5055391;28;20076;-62
2022/05/19 14:52:25;;;;;;;;;;;;;;;;;;5068475;28;20148;-62
2022/05/19 14:54:54;;;;;;;55.97;27.30;;;;;;;;;;5061187;28;20012;-62
2022/05/19 14:57:22;;;;;;;19.00;12.53;;;;;;;;;;5054303;28;20073;-63
2022/05/19 14:59:53;;;;;;;273.17;43.07;;;;;;;;;;5052486;28;20045;-62
2022/05/19 15:02:19;;;;;;;15.60;10.40;;;;;;;;;;5050632;28;20087;-62
2022/05/19 15:04:45;;;;;;;12.50;8.57;;;;;;;;;;5052223;28;20406;-63
2022/05/19 15:07:16;;;;;;;1999.90;248.23;;;;;;;;;;5052482;28;20045;-62
2022/05/19 15:09:42;;;;;;;409.83;47.97;;;;;;;;;;5052251;28;20099;-62